sensor_id;sensor_type;location;lat;lon;timestamp;pressure;altitude;pressure_sealevel;temperature;humidity
63190;BME280;49286;44.460;26.114;2024-01-25T00:01:29;100695.34;;;-0.91;100.00
63190;BME280;49286;44.460;26.114;2024-01-25T00:03:55;100699.56;;;-0.75;100.00
63190;BME280;49286;44.460;26.114;2024-01-25T00:06:20;100626.53;;;-1.28;100.00
63190;BME280;49286;44.460;26.114;2024-01-25T00:08:46;100625.25;;;-1.53;100.00
63190;BME280;49286;44.460;26.114;2024-01-25T00:11:12;100730.72;;;-0.87;100.00
63190;BME280;49286;44.460;26.114;2024-01-25T00:13:38;100707.09;;;-0.96;100.00
63190;BME280;49286;44.460;26.114;2024-01-25T00:16:05;100711.56;;;-0.76;100.00
63190;BME280;49286;44.460;26.114;2024-01-25T00:18:30;100625.06;;;-1.23;100.00
63190;BME280;49286;44.460;26.114;2024-01-25T00:20:56;100715.50;;;-0.82;100.00
63190;BME280;49286;44.460;26.114;2024-01-25T00:23:21;100675.75;;;-0.88;100.00
63190;BME280;49286;44.460;26.114;2024-01-25T00:25:47;100693.75;;;-0.71;100.00
63190;BME280;49286;44.460;26.114;2024-01-25T00:28:12;100606.50;;;-1.34;100.00
63190;BME280;49286;44.460;26.114;2024-01-25T00:30:39;100645.72;;;-1.05;100.00
63190;BME280;49286;44.460;26.114;2024-01-25T00:33:04;100655.09;;;-1.06;100.00
63190;BME280;49286;44.460;26.114;2024-01-25T00:35:30;100696.50;;;-0.85;100.00
63190;BME280;49286;44.460;26.114;2024-01-25T00:37:56;100653.72;;;-0.99;100.00
63190;BME280;49286;44.460;26.114;2024-01-25T00:40:22;100588.97;;;-1.41;100.00
63190;BME280;49286;44.460;26.114;2024-01-25T00:42:49;100678.09;;;-0.92;100.00
63190;BME280;49286;44.460;26.114;2024-01-25T00:45:21;100663.66;;;-1.07;100.00
63190;BME280;49286;44.460;26.114;2024-01-25T00:47:48;100672.88;;;-1.44;100.00
63190;BME280;49286;44.460;26.114;2024-01-25T00:50:14;100634.13;;;-1.47;100.00
63190;BME280;49286;44.460;26.114;2024-01-25T00:52:43;100638.09;;;-1.36;100.00
63190;BME280;49286;44.460;26.114;2024-01-25T00:55:09;100629.16;;;-1.27;100.00
63190;BME280;49286;44.460;26.114;2024-01-25T00:57:35;100635.63;;;-1.35;100.00
63190;BME280;49286;44.460;26.114;2024-01-25T01:00:01;100568.84;;;-1.66;100.00
63190;BME280;49286;44.460;26.114;2024-01-25T01:02:29;100563.03;;;-1.62;100.00
63190;BME280;49286;44.460;26.114;2024-01-25T01:04:57;100521.13;;;-1.77;100.00
63190;BME280;49286;44.460;26.114;2024-01-25T01:07:24;100629.88;;;-1.13;100.00
63190;BME280;49286;44.460;26.114;2024-01-25T01:09:49;100614.78;;;-1.23;100.00
63190;BME280;49286;44.460;26.114;2024-01-25T01:12:15;100624.00;;;-1.27;100.00
63190;BME280;49286;44.460;26.114;2024-01-25T01:14:42;100502.78;;;-1.83;100.00
63190;BME280;49286;44.460;26.114;2024-01-25T01:17:07;100501.91;;;-1.84;100.00
63190;BME280;49286;44.460;26.114;2024-01-25T01:19:33;100589.03;;;-1.23;100.00
63190;BME280;49286;44.460;26.114;2024-01-25T01:21:58;100492.59;;;-1.82;100.00
63190;BME280;49286;44.460;26.114;2024-01-25T01:24:24;100565.78;;;-1.24;100.00
63190;BME280;49286;44.460;26.114;2024-01-25T01:26:49;100512.44;;;-1.79;100.00
63190;BME280;49286;44.460;26.114;2024-01-25T01:29:16;100623.34;;;-1.06;100.00
63190;BME280;49286;44.460;26.114;2024-01-25T01:31:41;100505.09;;;-1.72;100.00
63190;BME280;49286;44.460;26.114;2024-01-25T01:34:07;100496.06;;;-1.98;100.00
63190;BME280;49286;44.460;26.114;2024-01-25T01:36:32;100510.91;;;-1.92;100.00
63190;BME280;49286;44.460;26.114;2024-01-25T01:38:58;100601.81;;;-1.59;100.00
63190;BME280;49286;44.460;26.114;2024-01-25T01:41:24;100560.66;;;-2.24;100.00
63190;BME280;49286;44.460;26.114;2024-01-25T01:43:52;100654.00;;;-2.09;100.00
63190;BME280;49286;44.460;26.114;2024-01-25T01:46:37;100620.94;;;-1.86;100.00
63190;BME280;49286;44.460;26.114;2024-01-25T01:49:07;100672.91;;;-1.76;100.00
63190;BME280;49286;44.460;26.114;2024-01-25T01:51:34;100585.91;;;-2.94;100.00
63190;BME280;49286;44.460;26.114;2024-01-25T01:54:02;100557.53;;;-2.66;100.00
63190;BME280;49286;44.460;26.114;2024-01-25T01:56:31;100584.38;;;-2.76;100.00
63190;BME280;49286;44.460;26.114;2024-01-25T01:58:58;100660.97;;;-2.06;100.00
63190;BME280;49286;44.460;26.114;2024-01-25T02:01:24;100611.56;;;-3.09;100.00
63190;BME280;49286;44.460;26.114;2024-01-25T02:03:51;100553.47;;;-2.78;100.00
63190;BME280;49286;44.460;26.114;2024-01-25T02:06:17;100567.75;;;-2.83;100.00
63190;BME280;49286;44.460;26.114;2024-01-25T02:08:43;100636.69;;;-2.59;100.00
63190;BME280;49286;44.460;26.114;2024-01-25T02:11:12;100568.16;;;-2.75;100.00
63190;BME280;49286;44.460;26.114;2024-01-25T02:13:38;100634.53;;;-2.51;100.00
63190;BME280;49286;44.460;26.114;2024-01-25T02:16:05;100559.41;;;-2.93;100.00
63190;BME280;49286;44.460;26.114;2024-01-25T02:18:32;100637.19;;;-2.19;100.00
63190;BME280;49286;44.460;26.114;2024-01-25T02:20:58;100587.75;;;-2.46;100.00
63190;BME280;49286;44.460;26.114;2024-01-25T02:23:25;100626.72;;;-1.91;100.00
63190;BME280;49286;44.460;26.114;2024-01-25T02:25:50;100534.94;;;-2.41;100.00
63190;BME280;49286;44.460;26.114;2024-01-25T02:28:16;100610.56;;;-1.88;100.00
63190;BME280;49286;44.460;26.114;2024-01-25T02:30:43;100609.91;;;-1.84;100.00
63190;BME280;49286;44.460;26.114;2024-01-25T02:33:09;100578.00;;;-1.87;100.00
63190;BME280;49286;44.460;26.114;2024-01-25T02:35:35;100612.41;;;-1.69;100.00
63190;BME280;49286;44.460;26.114;2024-01-25T02:38:00;100590.22;;;-1.67;100.00
63190;BME280;49286;44.460;26.114;2024-01-25T02:40:26;100587.09;;;-1.78;100.00
63190;BME280;49286;44.460;26.114;2024-01-25T02:42:53;100602.09;;;-1.53;100.00
63190;BME280;49286;44.460;26.114;2024-01-25T02:45:18;100542.81;;;-2.05;100.00
63190;BME280;49286;44.460;26.114;2024-01-25T02:47:43;100540.16;;;-1.90;100.00
63190;BME280;49286;44.460;26.114;2024-01-25T02:50:09;100499.44;;;-1.99;100.00
63190;BME280;49286;44.460;26.114;2024-01-25T02:52:35;100521.38;;;-2.05;100.00
63190;BME280;49286;44.460;26.114;2024-01-25T02:55:01;100594.97;;;-1.58;100.00
63190;BME280;49286;44.460;26.114;2024-01-25T02:57:26;100523.38;;;-2.00;100.00
63190;BME280;49286;44.460;26.114;2024-01-25T02:59:52;100578.56;;;-1.60;100.00
63190;BME280;49286;44.460;26.114;2024-01-25T03:02:17;100488.44;;;-2.13;100.00
63190;BME280;49286;44.460;26.114;2024-01-25T03:04:45;100479.78;;;-2.15;100.00
63190;BME280;49286;44.460;26.114;2024-01-25T03:07:11;100572.78;;;-1.56;100.00
63190;BME280;49286;44.460;26.114;2024-01-25T03:09:36;100470.03;;;-2.04;100.00
63190;BME280;49286;44.460;26.114;2024-01-25T03:12:02;100569.53;;;-1.36;100.00
63190;BME280;49286;44.460;26.114;2024-01-25T03:14:27;100439.69;;;-2.27;100.00
63190;BME280;49286;44.460;26.114;2024-01-25T03:16:53;100570.84;;;-1.60;100.00
63190;BME280;49286;44.460;26.114;2024-01-25T03:19:18;100541.19;;;-1.70;100.00
63190;BME280;49286;44.460;26.114;2024-01-25T03:21:44;100568.16;;;-1.45;100.00
63190;BME280;49286;44.460;26.114;2024-01-25T03:24:09;100494.78;;;-1.89;100.00
63190;BME280;49286;44.460;26.114;2024-01-25T03:26:35;100563.75;;;-1.64;100.00
63190;BME280;49286;44.460;26.114;2024-01-25T03:29:01;100573.56;;;-1.74;100.00
63190;BME280;49286;44.460;26.114;2024-01-25T03:31:27;100585.56;;;-1.58;100.00
63190;BME280;49286;44.460;26.114;2024-01-25T03:33:52;100584.19;;;-1.67;100.00
63190;BME280;49286;44.460;26.114;2024-01-25T03:36:18;100613.22;;;-1.70;100.00
63190;BME280;49286;44.460;26.114;2024-01-25T03:38:43;100480.66;;;-2.14;100.00
63190;BME280;49286;44.460;26.114;2024-01-25T03:41:09;100541.31;;;-1.85;100.00
63190;BME280;49286;44.460;26.114;2024-01-25T03:43:35;100470.94;;;-2.36;100.00
63190;BME280;49286;44.460;26.114;2024-01-25T03:46:01;100479.69;;;-2.33;100.00
63190;BME280;49286;44.460;26.114;2024-01-25T03:48:28;100559.53;;;-1.64;100.00
63190;BME280;49286;44.460;26.114;2024-01-25T03:50:54;100464.75;;;-2.23;100.00
63190;BME280;49286;44.460;26.114;2024-01-25T03:53:23;100451.13;;;-2.22;100.00
63190;BME280;49286;44.460;26.114;2024-01-25T03:55:48;100537.97;;;-1.66;100.00
63190;BME280;49286;44.460;26.114;2024-01-25T03:58:15;100534.69;;;-1.80;100.00
63190;BME280;49286;44.460;26.114;2024-01-25T04:00:40;100553.56;;;-1.63;100.00
63190;BME280;49286;44.460;26.114;2024-01-25T04:03:06;100465.72;;;-2.21;100.00
63190;BME280;49286;44.460;26.114;2024-01-25T04:05:31;100455.09;;;-2.44;100.00
63190;BME280;49286;44.460;26.114;2024-01-25T04:07:57;100576.97;;;-1.75;100.00
63190;BME280;49286;44.460;26.114;2024-01-25T04:10:22;100591.09;;;-1.66;100.00
63190;BME280;49286;44.460;26.114;2024-01-25T04:12:48;100522.25;;;-2.21;100.00
63190;BME280;49286;44.460;26.114;2024-01-25T04:15:13;100585.81;;;-1.86;100.00
63190;BME280;49286;44.460;26.114;2024-01-25T04:17:39;100505.09;;;-2.22;100.00
63190;BME280;49286;44.460;26.114;2024-01-25T04:20:05;100518.31;;;-2.15;100.00
63190;BME280;49286;44.460;26.114;2024-01-25T04:22:31;100618.59;;;-1.49;100.00
63190;BME280;49286;44.460;26.114;2024-01-25T04:24:56;100595.56;;;-1.80;100.00
63190;BME280;49286;44.460;26.114;2024-01-25T04:27:22;100624.78;;;-1.62;100.00
63190;BME280;49286;44.460;26.114;2024-01-25T04:29:47;100609.59;;;-1.57;100.00
63190;BME280;49286;44.460;26.114;2024-01-25T04:32:13;100560.00;;;-1.87;100.00
63190;BME280;49286;44.460;26.114;2024-01-25T04:34:38;100606.38;;;-1.70;100.00
63190;BME280;49286;44.460;26.114;2024-01-25T04:37:04;100595.84;;;-1.74;100.00
63190;BME280;49286;44.460;26.114;2024-01-25T04:39:31;100584.69;;;-1.75;100.00
63190;BME280;49286;44.460;26.114;2024-01-25T04:41:56;100528.50;;;-2.16;100.00
63190;BME280;49286;44.460;26.114;2024-01-25T04:44:22;100609.19;;;-1.81;100.00
63190;BME280;49286;44.460;26.114;2024-01-25T04:46:48;100583.00;;;-1.91;100.00
63190;BME280;49286;44.460;26.114;2024-01-25T04:49:13;100603.31;;;-1.95;100.00
63190;BME280;49286;44.460;26.114;2024-01-25T04:51:39;100536.47;;;-2.28;100.00
63190;BME280;49286;44.460;26.114;2024-01-25T04:54:04;100633.31;;;-1.63;100.00
63190;BME280;49286;44.460;26.114;2024-01-25T04:56:32;100640.44;;;-1.57;100.00
63190;BME280;49286;44.460;26.114;2024-01-25T04:58:57;100560.91;;;-2.03;100.00
63190;BME280;49286;44.460;26.114;2024-01-25T05:01:23;100533.25;;;-2.24;100.00
63190;BME280;49286;44.460;26.114;2024-01-25T05:03:49;100557.25;;;-2.23;100.00
63190;BME280;49286;44.460;26.114;2024-01-25T05:06:14;100657.19;;;-1.65;100.00
63190;BME280;49286;44.460;26.114;2024-01-25T05:08:42;100547.72;;;-2.09;100.00
63190;BME280;49286;44.460;26.114;2024-01-25T05:11:08;100653.25;;;-1.59;100.00
63190;BME280;49286;44.460;26.114;2024-01-25T05:13:34;100545.38;;;-2.21;100.00
63190;BME280;49286;44.460;26.114;2024-01-25T05:15:59;100629.28;;;-1.74;100.00
63190;BME280;49286;44.460;26.114;2024-01-25T05:18:25;100617.53;;;-1.85;100.00
63190;BME280;49286;44.460;26.114;2024-01-25T05:20:50;100662.81;;;-1.56;100.00
63190;BME280;49286;44.460;26.114;2024-01-25T05:23:17;100547.63;;;-2.27;100.00
63190;BME280;49286;44.460;26.114;2024-01-25T05:25:43;100657.81;;;-1.53;100.00
63190;BME280;49286;44.460;26.114;2024-01-25T05:28:09;100650.97;;;-1.53;100.00
63190;BME280;49286;44.460;26.114;2024-01-25T05:30:35;100662.97;;;-1.53;100.00
63190;BME280;49286;44.460;26.114;2024-01-25T05:33:01;100641.38;;;-1.57;100.00
63190;BME280;49286;44.460;26.114;2024-01-25T05:35:27;100648.66;;;-1.48;100.00
63190;BME280;49286;44.460;26.114;2024-01-25T05:37:52;100624.72;;;-1.63;100.00
63190;BME280;49286;44.460;26.114;2024-01-25T05:40:18;100656.63;;;-1.60;100.00
63190;BME280;49286;44.460;26.114;2024-01-25T05:42:45;100610.56;;;-1.72;100.00
63190;BME280;49286;44.460;26.114;2024-01-25T05:45:10;100619.47;;;-1.65;100.00
63190;BME280;49286;44.460;26.114;2024-01-25T05:47:36;100640.63;;;-1.54;100.00
63190;BME280;49286;44.460;26.114;2024-01-25T05:50:02;100660.06;;;-1.27;100.00
63190;BME280;49286;44.460;26.114;2024-01-25T05:52:27;100619.88;;;-1.74;100.00
63190;BME280;49286;44.460;26.114;2024-01-25T05:54:54;100658.56;;;-1.39;100.00
63190;BME280;49286;44.460;26.114;2024-01-25T05:57:20;100582.25;;;-1.72;100.00
63190;BME280;49286;44.460;26.114;2024-01-25T05:59:46;100662.88;;;-1.22;100.00
63190;BME280;49286;44.460;26.114;2024-01-25T06:02:15;100563.88;;;-1.79;100.00
63190;BME280;49286;44.460;26.114;2024-01-25T06:04:41;100611.34;;;-1.40;100.00
63190;BME280;49286;44.460;26.114;2024-01-25T06:07:06;100657.44;;;-1.10;100.00
63190;BME280;49286;44.460;26.114;2024-01-25T06:09:32;100570.25;;;-1.55;100.00
63190;BME280;49286;44.460;26.114;2024-01-25T06:11:58;100591.06;;;-1.50;100.00
63190;BME280;49286;44.460;26.114;2024-01-25T06:14:24;100676.03;;;-0.99;100.00
63190;BME280;49286;44.460;26.114;2024-01-25T06:16:49;100672.81;;;-0.95;100.00
63190;BME280;49286;44.460;26.114;2024-01-25T06:19:15;100648.53;;;-1.00;100.00
63190;BME280;49286;44.460;26.114;2024-01-25T06:21:40;100623.19;;;-1.09;100.00
63190;BME280;49286;44.460;26.114;2024-01-25T06:24:06;100644.94;;;-0.86;100.00
63190;BME280;49286;44.460;26.114;2024-01-25T06:26:32;100657.59;;;-0.91;100.00
63190;BME280;49286;44.460;26.114;2024-01-25T06:28:57;100664.91;;;-0.82;100.00
63190;BME280;49286;44.460;26.114;2024-01-25T06:31:24;100656.53;;;-0.94;100.00
63190;BME280;49286;44.460;26.114;2024-01-25T06:33:50;100634.88;;;-0.81;100.00
63190;BME280;49286;44.460;26.114;2024-01-25T06:36:18;100559.88;;;-1.22;100.00
63190;BME280;49286;44.460;26.114;2024-01-25T06:38:43;100591.78;;;-1.36;100.00
63190;BME280;49286;44.460;26.114;2024-01-25T06:41:09;100659.41;;;-0.54;100.00
63190;BME280;49286;44.460;26.114;2024-01-25T06:43:35;100656.16;;;-0.68;100.00
63190;BME280;49286;44.460;26.114;2024-01-25T06:46:02;100560.88;;;-1.02;100.00
63190;BME280;49286;44.460;26.114;2024-01-25T06:48:28;100557.72;;;-0.96;100.00
63190;BME280;49286;44.460;26.114;2024-01-25T06:50:53;100663.81;;;-0.51;100.00
63190;BME280;49286;44.460;26.114;2024-01-25T06:53:19;100563.88;;;-1.11;100.00
63190;BME280;49286;44.460;26.114;2024-01-25T06:55:45;100646.88;;;-0.46;100.00
63190;BME280;49286;44.460;26.114;2024-01-25T06:58:10;100573.53;;;-0.71;100.00
63190;BME280;49286;44.460;26.114;2024-01-25T07:00:36;100568.53;;;-0.86;100.00
63190;BME280;49286;44.460;26.114;2024-01-25T07:03:04;100626.38;;;-0.61;100.00
63190;BME280;49286;44.460;26.114;2024-01-25T07:05:31;100661.00;;;-0.38;100.00
63190;BME280;49286;44.460;26.114;2024-01-25T07:07:59;100559.69;;;-1.09;100.00
63190;BME280;49286;44.460;26.114;2024-01-25T07:10:26;100569.72;;;-0.97;100.00
63190;BME280;49286;44.460;26.114;2024-01-25T07:12:51;100633.38;;;-0.40;100.00
63190;BME280;49286;44.460;26.114;2024-01-25T07:15:19;100646.16;;;-0.26;100.00
63190;BME280;49286;44.460;26.114;2024-01-25T07:17:44;100656.50;;;-0.06;100.00
63190;BME280;49286;44.460;26.114;2024-01-25T07:20:10;100655.41;;;-0.11;100.00
63190;BME280;49286;44.460;26.114;2024-01-25T07:22:36;100592.38;;;-0.36;100.00
63190;BME280;49286;44.460;26.114;2024-01-25T07:25:01;100622.16;;;-0.05;100.00
63190;BME280;49286;44.460;26.114;2024-01-25T07:27:27;100613.66;;;-0.40;100.00
63190;BME280;49286;44.460;26.114;2024-01-25T07:29:53;100609.00;;;-0.11;100.00
63190;BME280;49286;44.460;26.114;2024-01-25T07:32:19;100537.69;;;-0.29;100.00
63190;BME280;49286;44.460;26.114;2024-01-25T07:34:45;100618.09;;;0.39;100.00
63190;BME280;49286;44.460;26.114;2024-01-25T07:37:11;100554.50;;;0.01;100.00
63190;BME280;49286;44.460;26.114;2024-01-25T07:39:37;100614.09;;;0.46;100.00
63190;BME280;49286;44.460;26.114;2024-01-25T07:42:02;100533.09;;;0.03;100.00
63190;BME280;49286;44.460;26.114;2024-01-25T07:44:28;100563.31;;;0.45;100.00
63190;BME280;49286;44.460;26.114;2024-01-25T07:46:53;100533.88;;;0.41;100.00
63190;BME280;49286;44.460;26.114;2024-01-25T07:49:19;100528.91;;;0.46;100.00
63190;BME280;49286;44.460;26.114;2024-01-25T07:51:45;100621.75;;;1.04;100.00
63190;BME280;49286;44.460;26.114;2024-01-25T07:54:12;100619.56;;;1.13;100.00
63190;BME280;49286;44.460;26.114;2024-01-25T07:56:38;100512.50;;;0.65;100.00
63190;BME280;49286;44.460;26.114;2024-01-25T07:59:04;100546.19;;;0.89;100.00
63190;BME280;49286;44.460;26.114;2024-01-25T08:01:29;100533.53;;;0.74;100.00
63190;BME280;49286;44.460;26.114;2024-01-25T08:03:55;100614.78;;;1.22;100.00
63190;BME280;49286;44.460;26.114;2024-01-25T08:06:21;100571.91;;;1.07;100.00
63190;BME280;49286;44.460;26.114;2024-01-25T08:08:48;100562.50;;;1.30;100.00
63190;BME280;49286;44.460;26.114;2024-01-25T08:11:15;100579.34;;;1.42;100.00
63190;BME280;49286;44.460;26.114;2024-01-25T08:13:44;100633.66;;;2.08;100.00
63190;BME280;49286;44.460;26.114;2024-01-25T08:16:10;100538.34;;;1.52;100.00
63190;BME280;49286;44.460;26.114;2024-01-25T08:18:39;100621.69;;;2.12;100.00
63190;BME280;49286;44.460;26.114;2024-01-25T08:21:05;100533.44;;;1.58;100.00
63190;BME280;49286;44.460;26.114;2024-01-25T08:23:31;100590.59;;;1.65;100.00
63190;BME280;49286;44.460;26.114;2024-01-25T08:25:56;100625.13;;;2.11;100.00
63190;BME280;49286;44.460;26.114;2024-01-25T08:28:22;100565.25;;;1.57;100.00
63190;BME280;49286;44.460;26.114;2024-01-25T08:30:47;100635.75;;;2.19;100.00
63190;BME280;49286;44.460;26.114;2024-01-25T08:33:13;100619.78;;;2.30;100.00
63190;BME280;49286;44.460;26.114;2024-01-25T08:35:39;100593.41;;;2.41;100.00
63190;BME280;49286;44.460;26.114;2024-01-25T08:38:06;100545.50;;;2.04;100.00
63190;BME280;49286;44.460;26.114;2024-01-25T08:40:32;100531.91;;;1.87;100.00
63190;BME280;49286;44.460;26.114;2024-01-25T08:42:58;100522.91;;;2.00;100.00
63190;BME280;49286;44.460;26.114;2024-01-25T08:45:23;100631.31;;;2.63;100.00
63190;BME280;49286;44.460;26.114;2024-01-25T08:47:49;100626.88;;;2.84;100.00
63190;BME280;49286;44.460;26.114;2024-01-25T08:50:16;100512.66;;;2.27;100.00
63190;BME280;49286;44.460;26.114;2024-01-25T08:52:41;100528.41;;;2.09;100.00
63190;BME280;49286;44.460;26.114;2024-01-25T08:55:07;100528.09;;;2.49;100.00
63190;BME280;49286;44.460;26.114;2024-01-25T08:57:35;100600.34;;;2.91;100.00
63190;BME280;49286;44.460;26.114;2024-01-25T09:00:01;100610.03;;;2.97;100.00
63190;BME280;49286;44.460;26.114;2024-01-25T09:02:27;100606.72;;;3.01;100.00
63190;BME280;49286;44.460;26.114;2024-01-25T09:04:55;100531.69;;;2.53;100.00
63190;BME280;49286;44.460;26.114;2024-01-25T09:07:22;100599.31;;;3.39;100.00
63190;BME280;49286;44.460;26.114;2024-01-25T09:09:48;100507.94;;;2.66;100.00
63190;BME280;49286;44.460;26.114;2024-01-25T09:12:14;100507.94;;;2.66;100.00
63190;BME280;49286;44.460;26.114;2024-01-25T09:14:41;100597.97;;;3.23;100.00
63190;BME280;49286;44.460;26.114;2024-01-25T09:17:09;100564.63;;;3.35;100.00
63190;BME280;49286;44.460;26.114;2024-01-25T09:19:34;100582.47;;;3.53;100.00
63190;BME280;49286;44.460;26.114;2024-01-25T09:22:00;100598.38;;;3.64;100.00
63190;BME280;49286;44.460;26.114;2024-01-25T09:24:30;100582.88;;;3.67;100.00
63190;BME280;49286;44.460;26.114;2024-01-25T09:26:56;100489.94;;;3.24;100.00
63190;BME280;49286;44.460;26.114;2024-01-25T09:29:24;100510.44;;;3.45;100.00
63190;BME280;49286;44.460;26.114;2024-01-25T09:31:49;100591.56;;;3.96;100.00
63190;BME280;49286;44.460;26.114;2024-01-25T09:34:15;100588.34;;;3.75;100.00
63190;BME280;49286;44.460;26.114;2024-01-25T09:36:45;100551.94;;;3.45;100.00
63190;BME280;49286;44.460;26.114;2024-01-25T09:39:10;100585.72;;;4.04;100.00
63190;BME280;49286;44.460;26.114;2024-01-25T09:41:36;100577.44;;;3.87;100.00
63190;BME280;49286;44.460;26.114;2024-01-25T09:44:02;100555.31;;;3.99;100.00
63190;BME280;49286;44.460;26.114;2024-01-25T09:46:28;100469.22;;;3.54;100.00
63190;BME280;49286;44.460;26.114;2024-01-25T09:48:54;100507.69;;;3.69;100.00
63190;BME280;49286;44.460;26.114;2024-01-25T09:51:20;100478.75;;;3.55;100.00
63190;BME280;49286;44.460;26.114;2024-01-25T09:53:48;100488.78;;;3.73;100.00
63190;BME280;49286;44.460;26.114;2024-01-25T09:56:15;100466.09;;;3.66;100.00
63190;BME280;49286;44.460;26.114;2024-01-25T09:58:44;100547.03;;;4.13;100.00
63190;BME280;49286;44.460;26.114;2024-01-25T10:01:13;100465.78;;;3.85;100.00
63190;BME280;49286;44.460;26.114;2024-01-25T10:03:46;100552.94;;;4.39;100.00
63190;BME280;49286;44.460;26.114;2024-01-25T10:06:12;100550.47;;;4.43;100.00
63190;BME280;49286;44.460;26.114;2024-01-25T10:08:38;100492.19;;;4.34;100.00
63190;BME280;49286;44.460;26.114;2024-01-25T10:11:04;100467.97;;;4.35;100.00
63190;BME280;49286;44.460;26.114;2024-01-25T10:13:29;100533.94;;;4.73;100.00
63190;BME280;49286;44.460;26.114;2024-01-25T10:15:56;100460.06;;;4.30;100.00
63190;BME280;49286;44.460;26.114;2024-01-25T10:18:24;100530.19;;;4.62;100.00
63190;BME280;49286;44.460;26.114;2024-01-25T10:20:52;100528.22;;;4.53;100.00
63190;BME280;49286;44.460;26.114;2024-01-25T10:23:18;100515.28;;;4.56;100.00
63190;BME280;49286;44.460;26.114;2024-01-25T10:25:44;100451.81;;;4.47;100.00
63190;BME280;49286;44.460;26.114;2024-01-25T10:28:12;100495.53;;;4.61;100.00
63190;BME280;49286;44.460;26.114;2024-01-25T10:30:38;100422.53;;;4.17;100.00
63190;BME280;49286;44.460;26.114;2024-01-25T10:33:04;100508.06;;;4.79;100.00
63190;BME280;49286;44.460;26.114;2024-01-25T10:35:31;100429.56;;;4.23;100.00
63190;BME280;49286;44.460;26.114;2024-01-25T10:37:59;100515.03;;;4.14;100.00
63190;BME280;49286;44.460;26.114;2024-01-25T10:40:26;100446.88;;;4.22;100.00
63190;BME280;49286;44.460;26.114;2024-01-25T10:42:52;100474.00;;;4.67;100.00
63190;BME280;49286;44.460;26.114;2024-01-25T10:45:18;100473.81;;;4.59;100.00
63190;BME280;49286;44.460;26.114;2024-01-25T10:47:49;100438.69;;;4.75;100.00
63190;BME280;49286;44.460;26.114;2024-01-25T10:50:16;100496.88;;;4.82;100.00
63190;BME280;49286;44.460;26.114;2024-01-25T10:52:42;100493.41;;;5.18;100.00
63190;BME280;49286;44.460;26.114;2024-01-25T10:55:09;100462.47;;;5.30;100.00
63190;BME280;49286;44.460;26.114;2024-01-25T10:57:38;100391.19;;;5.66;100.00
63190;BME280;49286;44.460;26.114;2024-01-25T11:00:09;100479.56;;;6.46;100.00
63190;BME280;49286;44.460;26.114;2024-01-25T11:02:36;100389.09;;;5.46;100.00
63190;BME280;49286;44.460;26.114;2024-01-25T11:05:01;100484.84;;;6.49;100.00
63190;BME280;49286;44.460;26.114;2024-01-25T11:07:44;100487.59;;;6.60;100.00
63190;BME280;49286;44.460;26.114;2024-01-25T11:10:17;100400.63;;;6.02;100.00
63190;BME280;49286;44.460;26.114;2024-01-25T11:15:29;100475.41;;;6.09;100.00
63190;BME280;49286;44.460;26.114;2024-01-25T11:17:56;100373.59;;;5.97;100.00
63190;BME280;49286;44.460;26.114;2024-01-25T11:20:23;100450.66;;;6.32;100.00
63190;BME280;49286;44.460;26.114;2024-01-25T11:22:57;100371.69;;;5.88;100.00
63190;BME280;49286;44.460;26.114;2024-01-25T11:25:30;100384.75;;;6.40;100.00
63190;BME280;49286;44.460;26.114;2024-01-25T11:27:56;100373.53;;;5.49;100.00
63190;BME280;49286;44.460;26.114;2024-01-25T11:30:21;100373.34;;;5.84;100.00
63190;BME280;49286;44.460;26.114;2024-01-25T11:32:47;100454.94;;;6.81;100.00
63190;BME280;49286;44.460;26.114;2024-01-25T11:35:14;100349.94;;;5.86;100.00
63190;BME280;49286;44.460;26.114;2024-01-25T11:37:44;100437.03;;;6.00;100.00
63190;BME280;49286;44.460;26.114;2024-01-25T11:40:11;100450.97;;;6.51;100.00
63190;BME280;49286;44.460;26.114;2024-01-25T11:42:37;100464.50;;;6.30;100.00
63190;BME280;49286;44.460;26.114;2024-01-25T11:45:05;100382.06;;;5.86;100.00
63190;BME280;49286;44.460;26.114;2024-01-25T11:47:30;100459.50;;;6.42;100.00
63190;BME280;49286;44.460;26.114;2024-01-25T11:49:56;100451.75;;;6.45;100.00
63190;BME280;49286;44.460;26.114;2024-01-25T11:52:21;100370.63;;;6.25;100.00
63190;BME280;49286;44.460;26.114;2024-01-25T11:54:47;100347.09;;;6.22;100.00
63190;BME280;49286;44.460;26.114;2024-01-25T11:57:13;100421.84;;;6.25;100.00
63190;BME280;49286;44.460;26.114;2024-01-25T11:59:38;100437.47;;;6.23;100.00
63190;BME280;49286;44.460;26.114;2024-01-25T12:02:04;100353.97;;;5.24;100.00
63190;BME280;49286;44.460;26.114;2024-01-25T12:04:30;100412.56;;;5.93;100.00
63190;BME280;49286;44.460;26.114;2024-01-25T12:06:55;100447.53;;;6.05;100.00
63190;BME280;49286;44.460;26.114;2024-01-25T12:09:21;100361.25;;;5.41;100.00
63190;BME280;49286;44.460;26.114;2024-01-25T12:11:49;100395.22;;;5.50;100.00
63190;BME280;49286;44.460;26.114;2024-01-25T12:14:16;100349.50;;;5.19;100.00
63190;BME280;49286;44.460;26.114;2024-01-25T12:16:42;100352.34;;;5.31;100.00
63190;BME280;49286;44.460;26.114;2024-01-25T12:19:08;100421.09;;;5.42;100.00
63190;BME280;49286;44.460;26.114;2024-01-25T12:21:35;100373.97;;;5.28;100.00
63190;BME280;49286;44.460;26.114;2024-01-25T12:24:02;100390.16;;;5.56;100.00
63190;BME280;49286;44.460;26.114;2024-01-25T12:26:28;100461.22;;;5.95;100.00
63190;BME280;49286;44.460;26.114;2024-01-25T12:28:53;100394.19;;;5.42;100.00
63190;BME280;49286;44.460;26.114;2024-01-25T12:31:19;100462.59;;;5.77;100.00